sensor_id;sensor_type;location;lat;lon;timestamp;pressure;altitude;pressure_sealevel;temperature;humidity
79617;BME280;69097;52.132;5.422;2023-08-24T00:01:45;101996.03;;;17.76;80.03
79617;BME280;69097;52.132;5.422;2023-08-24T00:04:12;101994.44;;;17.75;79.98
79617;BME280;69097;52.132;5.422;2023-08-24T00:06:38;101995.34;;;17.72;80.02
79617;BME280;69097;52.132;5.422;2023-08-24T00:09:05;101996.59;;;17.71;79.99
79617;BME280;69097;52.132;5.422;2023-08-24T00:11:32;101987.06;;;17.65;80.49
79617;BME280;69097;52.132;5.422;2023-08-24T00:13:59;101982.28;;;17.62;80.90
79617;BME280;69097;52.132;5.422;2023-08-24T00:16:26;101975.50;;;17.59;80.58
79617;BME280;69097;52.132;5.422;2023-08-24T00:18:52;101979.72;;;17.55;80.64
79617;BME280;69097;52.132;5.422;2023-08-24T00:21:19;101978.09;;;17.54;80.67
79617;BME280;69097;52.132;5.422;2023-08-24T00:23:52;101980.03;;;17.57;80.63
79617;BME280;69097;52.132;5.422;2023-08-24T00:26:19;101979.56;;;17.58;80.84
79617;BME280;69097;52.132;5.422;2023-08-24T00:28:46;101972.31;;;17.57;80.50
79617;BME280;69097;52.132;5.422;2023-08-24T00:31:15;101980.81;;;17.57;80.70
79617;BME280;69097;52.132;5.422;2023-08-24T00:33:42;101981.63;;;17.58;80.80
79617;BME280;69097;52.132;5.422;2023-08-24T00:36:09;101974.03;;;17.55;80.99
79617;BME280;69097;52.132;5.422;2023-08-24T00:38:36;101965.84;;;17.57;81.03
79617;BME280;69097;52.132;5.422;2023-08-24T00:41:03;101964.25;;;17.56;80.99
79617;BME280;69097;52.132;5.422;2023-08-24T00:43:29;101955.41;;;17.54;81.67
79617;BME280;69097;52.132;5.422;2023-08-24T00:45:58;101946.88;;;17.54;81.66
79617;BME280;69097;52.132;5.422;2023-08-24T00:48:26;101951.31;;;17.55;81.53
79617;BME280;69097;52.132;5.422;2023-08-24T00:51:00;101949.25;;;17.55;81.60
79617;BME280;69097;52.132;5.422;2023-08-24T00:53:28;101941.66;;;17.52;81.87
79617;BME280;69097;52.132;5.422;2023-08-24T00:55:56;101942.47;;;17.53;81.61
79617;BME280;69097;52.132;5.422;2023-08-24T00:58:23;101934.63;;;17.57;80.92
79617;BME280;69097;52.132;5.422;2023-08-24T01:00:51;101940.63;;;17.59;81.10
79617;BME280;69097;52.132;5.422;2023-08-24T01:03:21;101942.25;;;17.60;81.01
79617;BME280;69097;52.132;5.422;2023-08-24T01:05:48;101955.97;;;17.61;80.85
79617;BME280;69097;52.132;5.422;2023-08-24T01:08:14;101952.34;;;17.61;80.70
79617;BME280;69097;52.132;5.422;2023-08-24T01:10:48;101948.34;;;17.58;80.63
79617;BME280;69097;52.132;5.422;2023-08-24T01:13:50;101952.56;;;17.54;80.68
79617;BME280;69097;52.132;5.422;2023-08-24T01:16:18;101959.50;;;17.53;80.88
79617;BME280;69097;52.132;5.422;2023-08-24T01:18:46;101962.00;;;17.51;80.95
79617;BME280;69097;52.132;5.422;2023-08-24T01:21:14;101961.63;;;17.49;81.22
79617;BME280;69097;52.132;5.422;2023-08-24T01:23:43;101958.47;;;17.47;81.17
79617;BME280;69097;52.132;5.422;2023-08-24T01:26:20;101951.56;;;17.48;80.92
79617;BME280;69097;52.132;5.422;2023-08-24T01:28:47;101941.06;;;17.45;81.38
79617;BME280;69097;52.132;5.422;2023-08-24T01:31:14;101940.75;;;17.43;81.22
79617;BME280;69097;52.132;5.422;2023-08-24T01:33:45;101946.72;;;17.45;81.18
79617;BME280;69097;52.132;5.422;2023-08-24T01:36:14;101945.16;;;17.44;81.25
79617;BME280;69097;52.132;5.422;2023-08-24T01:38:45;101949.25;;;17.43;81.61
79617;BME280;69097;52.132;5.422;2023-08-24T01:41:22;101949.25;;;17.43;81.44
79617;BME280;69097;52.132;5.422;2023-08-24T01:43:53;101946.06;;;17.41;81.58
79617;BME280;69097;52.132;5.422;2023-08-24T01:46:21;101948.91;;;17.41;81.69
79617;BME280;69097;52.132;5.422;2023-08-24T01:48:48;101959.00;;;17.42;81.86
79617;BME280;69097;52.132;5.422;2023-08-24T01:51:16;101968.66;;;17.44;82.21
79617;BME280;69097;52.132;5.422;2023-08-24T01:53:42;101966.97;;;17.47;81.33
79617;BME280;69097;52.132;5.422;2023-08-24T01:56:13;101962.09;;;17.47;81.94
79617;BME280;69097;52.132;5.422;2023-08-24T01:58:39;101949.94;;;17.47;82.04
79617;BME280;69097;52.132;5.422;2023-08-24T02:01:07;101941.50;;;17.43;82.02
79617;BME280;69097;52.132;5.422;2023-08-24T02:03:34;101941.50;;;17.43;82.42
79617;BME280;69097;52.132;5.422;2023-08-24T02:06:01;101941.88;;;17.45;82.63
79617;BME280;69097;52.132;5.422;2023-08-24T02:08:28;101932.47;;;17.48;82.35
79617;BME280;69097;52.132;5.422;2023-08-24T02:10:55;101931.69;;;17.48;82.34
79617;BME280;69097;52.132;5.422;2023-08-24T02:13:21;101931.69;;;17.48;83.12
79617;BME280;69097;52.132;5.422;2023-08-24T02:15:48;101932.00;;;17.50;82.68
79617;BME280;69097;52.132;5.422;2023-08-24T02:18:14;101938.03;;;17.52;82.85
79617;BME280;69097;52.132;5.422;2023-08-24T02:20:41;101940.88;;;17.52;83.04
79617;BME280;69097;52.132;5.422;2023-08-24T02:23:07;101923.84;;;17.52;83.38
79617;BME280;69097;52.132;5.422;2023-08-24T02:25:34;101920.66;;;17.50;82.90
79617;BME280;69097;52.132;5.422;2023-08-24T02:28:00;101938.94;;;17.49;83.05
79617;BME280;69097;52.132;5.422;2023-08-24T02:30:27;101925.09;;;17.51;83.66
79617;BME280;69097;52.132;5.422;2023-08-24T02:32:53;101917.81;;;17.50;83.36
79617;BME280;69097;52.132;5.422;2023-08-24T02:35:20;101903.63;;;17.50;84.19
79617;BME280;69097;52.132;5.422;2023-08-24T02:37:46;101886.75;;;17.46;84.25
79617;BME280;69097;52.132;5.422;2023-08-24T02:40:13;101883.13;;;17.46;83.96
79617;BME280;69097;52.132;5.422;2023-08-24T02:42:40;101870.13;;;17.45;84.21
79617;BME280;69097;52.132;5.422;2023-08-24T02:45:06;101863.47;;;17.39;84.38
79617;BME280;69097;52.132;5.422;2023-08-24T02:47:33;101863.47;;;17.39;84.18
79617;BME280;69097;52.132;5.422;2023-08-24T02:50:00;101852.00;;;17.42;83.94
79617;BME280;69097;52.132;5.422;2023-08-24T02:52:26;101842.34;;;17.40;84.12
79617;BME280;69097;52.132;5.422;2023-08-24T02:54:53;101835.44;;;17.41;84.43
79617;BME280;69097;52.132;5.422;2023-08-24T02:57:19;101828.16;;;17.40;84.09
79617;BME280;69097;52.132;5.422;2023-08-24T02:59:46;101823.41;;;17.37;84.70
79617;BME280;69097;52.132;5.422;2023-08-24T03:02:12;101827.16;;;17.34;84.60
79617;BME280;69097;52.132;5.422;2023-08-24T03:04:39;101841.00;;;17.32;84.39
79617;BME280;69097;52.132;5.422;2023-08-24T03:07:06;101847.94;;;17.31;84.49
79617;BME280;69097;52.132;5.422;2023-08-24T03:09:35;101849.50;;;17.32;84.31
79617;BME280;69097;52.132;5.422;2023-08-24T03:12:01;101858.81;;;17.32;85.02
79617;BME280;69097;52.132;5.422;2023-08-24T03:14:29;101850.75;;;17.31;84.52
79617;BME280;69097;52.132;5.422;2023-08-24T03:16:55;101853.25;;;17.29;84.58
79617;BME280;69097;52.132;5.422;2023-08-24T03:19:22;101847.59;;;17.29;84.90
79617;BME280;69097;52.132;5.422;2023-08-24T03:21:48;101850.06;;;17.27;84.83
79617;BME280;69097;52.132;5.422;2023-08-24T03:24:15;101844.06;;;17.24;84.80
79617;BME280;69097;52.132;5.422;2023-08-24T03:26:41;101839.66;;;17.23;84.64
79617;BME280;69097;52.132;5.422;2023-08-24T03:29:08;101832.41;;;17.23;84.94
79617;BME280;69097;52.132;5.422;2023-08-24T03:31:34;101824.47;;;17.17;84.86
79617;BME280;69097;52.132;5.422;2023-08-24T03:34:01;101817.31;;;17.13;84.76
79617;BME280;69097;52.132;5.422;2023-08-24T03:36:27;101816.97;;;17.11;85.30
79617;BME280;69097;52.132;5.422;2023-08-24T03:38:54;101820.59;;;17.11;85.34
79617;BME280;69097;52.132;5.422;2023-08-24T03:41:21;101819.03;;;17.10;85.18
79617;BME280;69097;52.132;5.422;2023-08-24T03:43:47;101808.59;;;17.07;85.13
79617;BME280;69097;52.132;5.422;2023-08-24T03:46:13;101812.78;;;17.03;85.55
79617;BME280;69097;52.132;5.422;2023-08-24T03:48:40;101816.06;;;17.01;85.15
79617;BME280;69097;52.132;5.422;2023-08-24T03:51:07;101812.88;;;16.99;85.38
79617;BME280;69097;52.132;5.422;2023-08-24T03:53:33;101810.06;;;16.99;85.19
79617;BME280;69097;52.132;5.422;2023-08-24T03:56:00;101813.81;;;16.96;85.18
79617;BME280;69097;52.132;5.422;2023-08-24T03:58:26;101812.53;;;16.97;85.21
79617;BME280;69097;52.132;5.422;2023-08-24T04:00:53;101808.13;;;16.96;85.04
79617;BME280;69097;52.132;5.422;2023-08-24T04:03:20;101800.09;;;16.95;85.23
79617;BME280;69097;52.132;5.422;2023-08-24T04:05:48;101798.63;;;16.90;85.24
79617;BME280;69097;52.132;5.422;2023-08-24T04:08:14;101805.53;;;16.89;85.09
79617;BME280;69097;52.132;5.422;2023-08-24T04:10:41;101800.66;;;16.90;85.25
79617;BME280;69097;52.132;5.422;2023-08-24T04:13:07;101803.94;;;16.88;84.97
79617;BME280;69097;52.132;5.422;2023-08-24T04:15:34;101804.41;;;16.87;85.10
79617;BME280;69097;52.132;5.422;2023-08-24T04:18:00;101812.09;;;16.86;85.12
79617;BME280;69097;52.132;5.422;2023-08-24T04:20:27;101806.88;;;16.85;84.98
79617;BME280;69097;52.132;5.422;2023-08-24T04:22:54;101808.16;;;16.84;84.95
79617;BME280;69097;52.132;5.422;2023-08-24T04:25:22;101809.38;;;16.83;84.91
79617;BME280;69097;52.132;5.422;2023-08-24T04:27:48;101807.00;;;16.81;84.88
79617;BME280;69097;52.132;5.422;2023-08-24T04:30:16;101815.16;;;16.79;85.02
79617;BME280;69097;52.132;5.422;2023-08-24T04:32:42;101820.03;;;16.79;84.88
79617;BME280;69097;52.132;5.422;2023-08-24T04:35:09;101814.50;;;16.75;85.06
79617;BME280;69097;52.132;5.422;2023-08-24T04:37:36;101825.81;;;16.75;85.10
79617;BME280;69097;52.132;5.422;2023-08-24T04:40:05;101825.47;;;16.73;85.10
79617;BME280;69097;52.132;5.422;2023-08-24T04:42:33;101821.50;;;16.71;85.22
79617;BME280;69097;52.132;5.422;2023-08-24T04:45:00;101816.28;;;16.69;85.42
79617;BME280;69097;52.132;5.422;2023-08-24T04:47:27;101818.78;;;16.67;85.61
79617;BME280;69097;52.132;5.422;2023-08-24T04:49:54;101812.34;;;16.67;85.37
79617;BME280;69097;52.132;5.422;2023-08-24T04:52:20;101814.72;;;16.68;85.31
79617;BME280;69097;52.132;5.422;2023-08-24T04:54:47;101813.09;;;16.67;85.29
79617;BME280;69097;52.132;5.422;2023-08-24T04:57:13;101807.88;;;16.66;85.08
79617;BME280;69097;52.132;5.422;2023-08-24T04:59:40;101803.47;;;16.65;85.47
79617;BME280;69097;52.132;5.422;2023-08-24T05:02:07;101809.16;;;16.65;85.51
79617;BME280;69097;52.132;5.422;2023-08-24T05:04:34;101811.97;;;16.65;85.46
79617;BME280;69097;52.132;5.422;2023-08-24T05:07:01;101814.81;;;16.65;85.71
79617;BME280;69097;52.132;5.422;2023-08-24T05:09:27;101808.34;;;16.64;85.59
79617;BME280;69097;52.132;5.422;2023-08-24T05:11:54;101806.78;;;16.63;85.51
79617;BME280;69097;52.132;5.422;2023-08-24T05:14:20;101809.94;;;16.65;85.88
79617;BME280;69097;52.132;5.422;2023-08-24T05:16:46;101809.94;;;16.65;85.76
79617;BME280;69097;52.132;5.422;2023-08-24T05:19:13;101806.66;;;16.67;85.85
79617;BME280;69097;52.132;5.422;2023-08-24T05:21:40;101797.72;;;16.68;85.95
79617;BME280;69097;52.132;5.422;2023-08-24T05:24:06;101799.28;;;16.69;85.94
79617;BME280;69097;52.132;5.422;2023-08-24T05:26:33;101795.22;;;16.70;86.33
79617;BME280;69097;52.132;5.422;2023-08-24T05:28:59;101794.31;;;16.73;86.52
79617;BME280;69097;52.132;5.422;2023-08-24T05:31:26;101787.38;;;16.74;86.40
79617;BME280;69097;52.132;5.422;2023-08-24T05:33:52;101783.31;;;16.75;86.59
79617;BME280;69097;52.132;5.422;2023-08-24T05:36:19;101775.59;;;16.76;86.97
79617;BME280;69097;52.132;5.422;2023-08-24T05:38:45;101769.47;;;16.77;86.97
79617;BME280;69097;52.132;5.422;2023-08-24T05:41:31;101769.81;;;16.79;86.98
79617;BME280;69097;52.132;5.422;2023-08-24T05:43:58;101758.72;;;16.85;86.43
79617;BME280;69097;52.132;5.422;2023-08-24T05:46:24;101767.91;;;16.89;86.91
79617;BME280;69097;52.132;5.422;2023-08-24T05:48:51;101764.94;;;16.92;86.72
79617;BME280;69097;52.132;5.422;2023-08-24T05:51:17;101765.63;;;16.96;87.39
79617;BME280;69097;52.132;5.422;2023-08-24T05:53:44;101760.28;;;16.98;87.35
79617;BME280;69097;52.132;5.422;2023-08-24T05:56:10;101746.47;;;17.00;87.90
79617;BME280;69097;52.132;5.422;2023-08-24T05:58:37;101747.13;;;17.04;87.65
79617;BME280;69097;52.132;5.422;2023-08-24T06:01:03;101743.69;;;17.09;87.51
79617;BME280;69097;52.132;5.422;2023-08-24T06:03:29;101742.81;;;17.12;87.82
79617;BME280;69097;52.132;5.422;2023-08-24T06:06:03;101745.84;;;17.18;88.18
79617;BME280;69097;52.132;5.422;2023-08-24T06:08:30;101747.34;;;17.23;87.28
79617;BME280;69097;52.132;5.422;2023-08-24T06:10:57;101741.06;;;17.28;87.14
79617;BME280;69097;52.132;5.422;2023-08-24T06:13:24;101737.66;;;17.33;87.32
79617;BME280;69097;52.132;5.422;2023-08-24T06:15:51;101731.06;;;17.36;87.14
79617;BME280;69097;52.132;5.422;2023-08-24T06:18:17;101726.38;;;17.42;86.84
79617;BME280;69097;52.132;5.422;2023-08-24T06:20:44;101726.63;;;17.47;86.75
79617;BME280;69097;52.132;5.422;2023-08-24T06:23:12;101724.00;;;17.53;86.84
79617;BME280;69097;52.132;5.422;2023-08-24T06:25:41;101708.75;;;17.59;86.61
79617;BME280;69097;52.132;5.422;2023-08-24T06:28:07;101719.06;;;17.66;86.84
79617;BME280;69097;52.132;5.422;2023-08-24T06:30:41;101712.19;;;17.76;87.27
79617;BME280;69097;52.132;5.422;2023-08-24T06:33:09;101696.47;;;17.84;86.80
79617;BME280;69097;52.132;5.422;2023-08-24T06:35:37;101701.56;;;17.89;86.28
79617;BME280;69097;52.132;5.422;2023-08-24T06:38:04;101704.59;;;17.94;86.53
79617;BME280;69097;52.132;5.422;2023-08-24T06:40:30;101705.13;;;18.02;85.93
79617;BME280;69097;52.132;5.422;2023-08-24T06:42:57;101702.00;;;18.09;86.07
79617;BME280;69097;52.132;5.422;2023-08-24T06:45:23;101695.25;;;18.15;86.22
79617;BME280;69097;52.132;5.422;2023-08-24T06:47:50;101688.53;;;18.22;86.32
79617;BME280;69097;52.132;5.422;2023-08-24T06:50:18;101691.38;;;18.31;86.32
79617;BME280;69097;52.132;5.422;2023-08-24T06:52:45;101682.94;;;18.40;86.46
79617;BME280;69097;52.132;5.422;2023-08-24T06:55:15;101672.88;;;18.48;85.84
79617;BME280;69097;52.132;5.422;2023-08-24T06:57:41;101679.84;;;18.56;86.35
79617;BME280;69097;52.132;5.422;2023-08-24T07:00:08;101664.09;;;18.64;85.61
79617;BME280;69097;52.132;5.422;2023-08-24T07:02:36;101666.19;;;18.73;85.42
79617;BME280;69097;52.132;5.422;2023-08-24T07:05:03;101679.59;;;18.81;85.08
79617;BME280;69097;52.132;5.422;2023-08-24T07:07:31;101678.34;;;18.91;84.26
79617;BME280;69097;52.132;5.422;2023-08-24T07:09:58;101673.97;;;18.99;83.75
79617;BME280;69097;52.132;5.422;2023-08-24T07:12:24;101681.72;;;19.08;84.78
79617;BME280;69097;52.132;5.422;2023-08-24T07:14:51;101676.03;;;19.17;83.29
79617;BME280;69097;52.132;5.422;2023-08-24T07:17:17;101671.94;;;19.27;83.97
79617;BME280;69097;52.132;5.422;2023-08-24T07:19:44;101667.09;;;19.36;83.70
79617;BME280;69097;52.132;5.422;2023-08-24T07:22:11;101662.97;;;19.46;83.56
79617;BME280;69097;52.132;5.422;2023-08-24T07:24:37;101655.69;;;19.54;82.40
79617;BME280;69097;52.132;5.422;2023-08-24T07:27:12;101669.44;;;19.65;81.91
79617;BME280;69097;52.132;5.422;2023-08-24T07:29:38;101665.63;;;19.77;82.01
79617;BME280;69097;52.132;5.422;2023-08-24T07:32:05;101667.03;;;19.91;81.53
79617;BME280;69097;52.132;5.422;2023-08-24T07:34:31;101663.97;;;20.03;82.17
79617;BME280;69097;52.132;5.422;2023-08-24T07:36:58;101675.22;;;20.16;81.03
79617;BME280;69097;52.132;5.422;2023-08-24T07:39:24;101666.78;;;20.21;80.81
79617;BME280;69097;52.132;5.422;2023-08-24T07:41:52;101665.66;;;20.28;79.44
79617;BME280;69097;52.132;5.422;2023-08-24T07:44:18;101666.13;;;20.35;79.36
79617;BME280;69097;52.132;5.422;2023-08-24T07:46:46;101666.88;;;20.45;80.14
79617;BME280;69097;52.132;5.422;2023-08-24T07:49:13;101661.94;;;20.54;79.99
79617;BME280;69097;52.132;5.422;2023-08-24T07:51:39;101671.53;;;20.66;80.58
79617;BME280;69097;52.132;5.422;2023-08-24T07:54:06;101672.44;;;20.72;77.70
79617;BME280;69097;52.132;5.422;2023-08-24T07:56:33;101664.81;;;20.78;79.54
79617;BME280;69097;52.132;5.422;2023-08-24T07:58:59;101667.59;;;20.87;78.36
79617;BME280;69097;52.132;5.422;2023-08-24T08:01:26;101672.78;;;20.98;77.89
79617;BME280;69097;52.132;5.422;2023-08-24T08:03:53;101676.44;;;20.98;76.49
79617;BME280;69097;52.132;5.422;2023-08-24T08:06:19;101673.50;;;21.07;77.83
79617;BME280;69097;52.132;5.422;2023-08-24T08:08:48;101680.72;;;21.17;77.23
79617;BME280;69097;52.132;5.422;2023-08-24T08:11:17;101673.69;;;21.27;77.55
79617;BME280;69097;52.132;5.422;2023-08-24T08:13:44;101664.47;;;21.32;76.70
79617;BME280;69097;52.132;5.422;2023-08-24T08:16:10;101663.88;;;21.43;77.02
79617;BME280;69097;52.132;5.422;2023-08-24T08:18:37;101648.75;;;21.51;76.55
79617;BME280;69097;52.132;5.422;2023-08-24T08:21:15;101652.78;;;21.59;75.78
79617;BME280;69097;52.132;5.422;2023-08-24T08:23:45;101640.66;;;21.64;74.78
79617;BME280;69097;52.132;5.422;2023-08-24T08:26:12;101648.28;;;21.67;74.57
79617;BME280;69097;52.132;5.422;2023-08-24T08:28:42;101637.94;;;21.70;74.72
79617;BME280;69097;52.132;5.422;2023-08-24T08:31:08;101644.53;;;21.76;74.76
79617;BME280;69097;52.132;5.422;2023-08-24T08:33:35;101640.25;;;21.80;75.23
79617;BME280;69097;52.132;5.422;2023-08-24T08:36:02;101634.44;;;21.89;75.69
79617;BME280;69097;52.132;5.422;2023-08-24T08:38:29;101624.88;;;21.92;75.73
79617;BME280;69097;52.132;5.422;2023-08-24T08:40:57;101622.13;;;21.98;75.68
79617;BME280;69097;52.132;5.422;2023-08-24T08:43:28;101628.69;;;22.04;75.23
79617;BME280;69097;52.132;5.422;2023-08-24T08:45:57;101613.91;;;22.06;74.24
79617;BME280;69097;52.132;5.422;2023-08-24T08:48:25;101600.22;;;22.10;73.24
79617;BME280;69097;52.132;5.422;2023-08-24T08:50:52;101605.50;;;22.17;73.67
79617;BME280;69097;52.132;5.422;2023-08-24T08:53:21;101605.41;;;22.26;73.84
79617;BME280;69097;52.132;5.422;2023-08-24T08:55:51;101591.00;;;22.35;74.21
79617;BME280;69097;52.132;5.422;2023-08-24T08:58:19;101589.59;;;22.45;74.26
79617;BME280;69097;52.132;5.422;2023-08-24T09:00:47;101587.88;;;22.53;73.22
79617;BME280;69097;52.132;5.422;2023-08-24T09:03:17;101586.19;;;22.61;71.91
79617;BME280;69097;52.132;5.422;2023-08-24T09:05:44;101574.63;;;22.70;71.29
79617;BME280;69097;52.132;5.422;2023-08-24T09:08:16;101558.91;;;22.80;71.25
79617;BME280;69097;52.132;5.422;2023-08-24T09:10:43;101566.03;;;22.90;71.25
79617;BME280;69097;52.132;5.422;2023-08-24T09:13:10;101571.63;;;22.99;70.70
79617;BME280;69097;52.132;5.422;2023-08-24T09:15:37;101570.94;;;23.09;71.49
79617;BME280;69097;52.132;5.422;2023-08-24T09:18:03;101569.28;;;23.23;70.63
79617;BME280;69097;52.132;5.422;2023-08-24T09:20:30;101561.16;;;23.36;70.90
79617;BME280;69097;52.132;5.422;2023-08-24T09:22:58;101562.06;;;23.53;72.01
79617;BME280;69097;52.132;5.422;2023-08-24T09:25:25;101543.69;;;23.65;68.82
79617;BME280;69097;52.132;5.422;2023-08-24T09:28:02;101543.81;;;23.76;69.54
79617;BME280;69097;52.132;5.422;2023-08-24T09:30:35;101544.19;;;23.89;67.95
79617;BME280;69097;52.132;5.422;2023-08-24T09:33:03;101535.69;;;24.00;67.43
79617;BME280;69097;52.132;5.422;2023-08-24T09:35:34;101531.34;;;24.10;66.27
79617;BME280;69097;52.132;5.422;2023-08-24T09:38:23;101537.69;;;24.25;66.53
79617;BME280;69097;52.132;5.422;2023-08-24T09:40:51;101524.44;;;24.33;66.50
79617;BME280;69097;52.132;5.422;2023-08-24T09:43:18;101528.44;;;24.47;67.06
79617;BME280;69097;52.132;5.422;2023-08-24T09:48:15;101523.53;;;24.59;67.17
79617;BME280;69097;52.132;5.422;2023-08-24T09:50:47;101537.88;;;24.59;65.66
79617;BME280;69097;52.132;5.422;2023-08-24T09:53:24;101526.16;;;24.62;64.66
79617;BME280;69097;52.132;5.422;2023-08-24T09:55:58;101528.22;;;24.62;66.91
79617;BME280;69097;52.132;5.422;2023-08-24T09:58:25;101534.22;;;24.58;66.94
79617;BME280;69097;52.132;5.422;2023-08-24T10:00:52;101527.97;;;24.54;65.61
79617;BME280;69097;52.132;5.422;2023-08-24T10:03:21;101531.31;;;24.53;66.16
79617;BME280;69097;52.132;5.422;2023-08-24T10:05:54;101531.81;;;24.46;64.79
79617;BME280;69097;52.132;5.422;2023-08-24T10:08:31;101533.34;;;24.36;66.87
79617;BME280;69097;52.132;5.422;2023-08-24T10:11:00;101533.81;;;24.28;67.55
79617;BME280;69097;52.132;5.422;2023-08-24T10:13:55;101539.50;;;24.23;68.33
79617;BME280;69097;52.132;5.422;2023-08-24T10:16:24;101534.69;;;24.09;67.84
79617;BME280;69097;52.132;5.422;2023-08-24T10:18:51;101525.81;;;24.01;68.35
79617;BME280;69097;52.132;5.422;2023-08-24T10:21:18;101522.81;;;23.90;69.39
79617;BME280;69097;52.132;5.422;2023-08-24T10:23:46;101518.31;;;23.78;69.29
79617;BME280;69097;52.132;5.422;2023-08-24T10:26:13;101513.03;;;23.71;71.02
79617;BME280;69097;52.132;5.422;2023-08-24T10:28:41;101519.22;;;23.64;71.41
79617;BME280;69097;52.132;5.422;2023-08-24T10:31:08;101513.66;;;23.55;72.13
79617;BME280;69097;52.132;5.422;2023-08-24T10:33:35;101515.94;;;23.46;71.73
79617;BME280;69097;52.132;5.422;2023-08-24T10:36:06;101517.47;;;23.41;72.45
79617;BME280;69097;52.132;5.422;2023-08-24T10:38:35;101511.91;;;23.32;73.56
79617;BME280;69097;52.132;5.422;2023-08-24T10:41:07;101504.50;;;23.26;73.66
79617;BME280;69097;52.132;5.422;2023-08-24T10:43:37;101504.97;;;23.18;73.60
79617;BME280;69097;52.132;5.422;2023-08-24T10:46:04;101509.34;;;23.14;75.91
79617;BME280;69097;52.132;5.422;2023-08-24T10:51:21;101527.50;;;23.11;78.53
79617;BME280;69097;52.132;5.422;2023-08-24T10:53:59;101534.03;;;23.11;78.61
79617;BME280;69097;52.132;5.422;2023-08-24T10:56:37;101525.72;;;23.13;78.77
79617;BME280;69097;52.132;5.422;2023-08-24T11:01:43;101513.19;;;23.11;80.10
79617;BME280;69097;52.132;5.422;2023-08-24T11:04:11;101510.34;;;23.11;80.05
79617;BME280;69097;52.132;5.422;2023-08-24T11:06:57;101506.19;;;23.12;77.51
79617;BME280;69097;52.132;5.422;2023-08-24T11:09:25;101511.63;;;23.10;77.95
79617;BME280;69097;52.132;5.422;2023-08-24T11:14:26;101504.59;;;23.11;77.23
79617;BME280;69097;52.132;5.422;2023-08-24T11:16:57;101513.19;;;23.11;77.99
79617;BME280;69097;52.132;5.422;2023-08-24T11:19:24;101511.63;;;23.10;76.61
79617;BME280;69097;52.132;5.422;2023-08-24T11:21:51;101493.41;;;23.07;78.76
79617;BME280;69097;52.132;5.422;2023-08-24T11:24:21;101485.28;;;23.06;79.48
79617;BME280;69097;52.132;5.422;2023-08-24T11:26:48;101485.59;;;23.08;80.34
79617;BME280;69097;52.132;5.422;2023-08-24T11:29:15;101474.41;;;23.10;78.35
79617;BME280;69097;52.132;5.422;2023-08-24T11:31:42;101466.41;;;23.14;77.50
79617;BME280;69097;52.132;5.422;2023-08-24T11:34:10;101461.22;;;23.18;78.35
79617;BME280;69097;52.132;5.422;2023-08-24T11:36:41;101458.63;;;23.20;77.08
79617;BME280;69097;52.132;5.422;2023-08-24T11:39:17;101455.56;;;23.24;78.42
79617;BME280;69097;52.132;5.422;2023-08-24T11:44:29;101444.47;;;23.31;78.15
79617;BME280;69097;52.132;5.422;2023-08-24T11:46:57;101432.00;;;23.34;78.77
79617;BME280;69097;52.132;5.422;2023-08-24T11:49:25;101440.88;;;23.36;78.35
79617;BME280;69097;52.132;5.422;2023-08-24T11:51:52;101426.03;;;23.38;76.84
79617;BME280;69097;52.132;5.422;2023-08-24T11:54:19;101428.16;;;23.43;77.81
79617;BME280;69097;52.132;5.422;2023-08-24T11:56:45;101424.31;;;23.51;78.07
79617;BME280;69097;52.132;5.422;2023-08-24T11:59:16;101428.84;;;23.63;77.94
79617;BME280;69097;52.132;5.422;2023-08-24T12:01:45;101430.47;;;23.75;79.08
79617;BME280;69097;52.132;5.422;2023-08-24T12:04:12;101425.09;;;23.88;77.19
79617;BME280;69097;52.132;5.422;2023-08-24T12:06:39;101422.53;;;23.96;73.74
79617;BME280;69097;52.132;5.422;2023-08-24T12:09:06;101429.13;;;24.02;73.40
79617;BME280;69097;52.132;5.422;2023-08-24T12:11:37;101432.31;;;24.15;73.83
79617;BME280;69097;52.132;5.422;2023-08-24T12:14:05;101432.94;;;24.36;74.99
79617;BME280;69097;52.132;5.422;2023-08-24T12:16:33;101423.31;;;24.50;71.51
79617;BME280;69097;52.132;5.422;2023-08-24T12:19:00;101424.69;;;24.65;71.78
79617;BME280;69097;52.132;5.422;2023-08-24T12:21:30;101419.06;;;24.93;70.37
79617;BME280;69097;52.132;5.422;2023-08-24T12:24:03;101410.69;;;25.06;70.90
79617;BME280;69097;52.132;5.422;2023-08-24T12:26:33;101396.63;;;25.08;69.18
79617;BME280;69097;52.132;5.422;2023-08-24T12:31:29;101382.25;;;25.08;70.68
79617;BME280;69097;52.132;5.422;2023-08-24T12:34:06;101380.69;;;25.07;70.17
79617;BME280;69097;52.132;5.422;2023-08-24T12:36:36;101380.69;;;25.07;70.62
79617;BME280;69097;52.132;5.422;2023-08-24T12:39:05;101377.56;;;25.05;71.15
79617;BME280;69097;52.132;5.422;2023-08-24T12:41:32;101360.31;;;24.99;70.97
79617;BME280;69097;52.132;5.422;2023-08-24T12:43:59;101360.56;;;24.90;68.80
79617;BME280;69097;52.132;5.422;2023-08-24T12:46:32;101346.97;;;24.80;70.82
79617;BME280;69097;52.132;5.422;2023-08-24T12:48:59;101331.59;;;24.72;71.69
79617;BME280;69097;52.132;5.422;2023-08-24T12:51:25;101319.84;;;24.70;71.81
79617;BME280;69097;52.132;5.422;2023-08-24T12:53:52;101321.41;;;24.71;72.38
79617;BME280;69097;52.132;5.422;2023-08-24T12:56:18;101321.16;;;24.69;69.98
79617;BME280;69097;52.132;5.422;2023-08-24T12:58:45;101319.56;;;24.68;71.14
79617;BME280;69097;52.132;5.422;2023-08-24T13:01:11;101305.75;;;24.72;71.09
79617;BME280;69097;52.132;5.422;2023-08-24T13:03:39;101296.38;;;24.77;69.24
79617;BME280;69097;52.132;5.422;2023-08-24T13:06:06;101303.16;;;24.96;70.26
79617;BME280;69097;52.132;5.422;2023-08-24T13:08:50;101289.31;;;25.05;68.97
79617;BME280;69097;52.132;5.422;2023-08-24T13:11:16;101280.69;;;25.05;67.54